<?xml version="1.0" encoding="UTF-8"?>
<gpx version="1.0" creator="Gaggle https://github.com/geeksville/Gaggle" xmlns:xsi="http://www.w3.org/2001/XMLSchema-instance" xmlns="http://www.topografix.com/GPX/1/0" xsi:schemaLocation="http://www.topografix.com/GPX/1/0 http://www.topografix.com/GPX/1/0/gpx.xsd">
<trk>
	<name>Jorgev's flight</name>
	<desc>
	Pilot name:	Jorgev
	Pilot ID:	
	Glider type:	Rush 2
	</desc>
	<trkseg>
		<trkpt lat="37.142199" lon="-3.519059">
			<ele>1337.000000</ele>
		<time>2015-04-26T09:21:39Z</time>
		</trkpt>

		<trkpt lat="37.142255" lon="-3.519117">
			<ele>1318.000000</ele>
		<time>2015-04-26T09:22:09Z</time>
		</trkpt>

		<trkpt lat="37.142251" lon="-3.519079">
			<ele>1325.000000</ele>
		<time>2015-04-26T09:22:30Z</time>
		</trkpt>

		<trkpt lat="37.142249" lon="-3.519123">
			<ele>1329.000000</ele>
		<time>2015-04-26T09:23:30Z</time>
		</trkpt>

		<trkpt lat="37.142221" lon="-3.519128">
			<ele>1332.000000</ele>
		<time>2015-04-26T09:23:42Z</time>
		</trkpt>

		<trkpt lat="37.142144" lon="-3.519322">
			<ele>1327.000000</ele>
		<time>2015-04-26T09:24:03Z</time>
		</trkpt>

		<trkpt lat="37.142112" lon="-3.519478">
			<ele>1324.000000</ele>
		<time>2015-04-26T09:24:06Z</time>
		</trkpt>

		<trkpt lat="37.142142" lon="-3.519581">
			<ele>1329.000000</ele>
		<time>2015-04-26T09:24:09Z</time>
		</trkpt>

		<trkpt lat="37.142227" lon="-3.519661">
			<ele>1333.000000</ele>
		<time>2015-04-26T09:24:12Z</time>
		</trkpt>

		<trkpt lat="37.142467" lon="-3.519673">
			<ele>1331.000000</ele>
		<time>2015-04-26T09:24:15Z</time>
		</trkpt>

		<trkpt lat="37.142677" lon="-3.519615">
			<ele>1328.000000</ele>
		<time>2015-04-26T09:24:18Z</time>
		</trkpt>

		<trkpt lat="37.142571" lon="-3.519859">
			<ele>1326.000000</ele>
		<time>2015-04-26T09:24:21Z</time>
		</trkpt>

		<trkpt lat="37.142420" lon="-3.519631">
			<ele>1326.000000</ele>
		<time>2015-04-26T09:24:24Z</time>
		</trkpt>

		<trkpt lat="37.142292" lon="-3.519540">
			<ele>1325.000000</ele>
		<time>2015-04-26T09:24:27Z</time>
		</trkpt>

		<trkpt lat="37.142096" lon="-3.519634">
			<ele>1323.000000</ele>
		<time>2015-04-26T09:24:30Z</time>
		</trkpt>

		<trkpt lat="37.141975" lon="-3.519773">
			<ele>1324.000000</ele>
		<time>2015-04-26T09:24:33Z</time>
		</trkpt>

		<trkpt lat="37.141892" lon="-3.519948">
			<ele>1321.000000</ele>
		<time>2015-04-26T09:24:36Z</time>
		</trkpt>

		<trkpt lat="37.142137" lon="-3.520087">
			<ele>1320.000000</ele>
		<time>2015-04-26T09:24:39Z</time>
		</trkpt>

		<trkpt lat="37.142348" lon="-3.520073">
			<ele>1319.000000</ele>
		<time>2015-04-26T09:24:42Z</time>
		</trkpt>

		<trkpt lat="37.142665" lon="-3.519962">
			<ele>1311.000000</ele>
		<time>2015-04-26T09:24:45Z</time>
		</trkpt>

		<trkpt lat="37.142841" lon="-3.520184">
			<ele>1313.000000</ele>
		<time>2015-04-26T09:24:48Z</time>
		</trkpt>

		<trkpt lat="37.142819" lon="-3.520347">
			<ele>1316.000000</ele>
		<time>2015-04-26T09:24:51Z</time>
		</trkpt>

		<trkpt lat="37.142630" lon="-3.520429">
			<ele>1313.000000</ele>
		<time>2015-04-26T09:24:54Z</time>
		</trkpt>

		<trkpt lat="37.142414" lon="-3.520287">
			<ele>1320.000000</ele>
		<time>2015-04-26T09:24:57Z</time>
		</trkpt>

		<trkpt lat="37.142187" lon="-3.520274">
			<ele>1310.000000</ele>
		<time>2015-04-26T09:25:00Z</time>
		</trkpt>

		<trkpt lat="37.142074" lon="-3.520561">
			<ele>1305.000000</ele>
		<time>2015-04-26T09:25:03Z</time>
		</trkpt>

		<trkpt lat="37.142016" lon="-3.520746">
			<ele>1304.000000</ele>
		<time>2015-04-26T09:25:06Z</time>
		</trkpt>

		<trkpt lat="37.142096" lon="-3.520930">
			<ele>1301.000000</ele>
		<time>2015-04-26T09:25:09Z</time>
		</trkpt>

		<trkpt lat="37.142479" lon="-3.520881">
			<ele>1306.000000</ele>
		<time>2015-04-26T09:25:12Z</time>
		</trkpt>

		<trkpt lat="37.142694" lon="-3.520803">
			<ele>1297.000000</ele>
		<time>2015-04-26T09:25:15Z</time>
		</trkpt>

		<trkpt lat="37.142996" lon="-3.520637">
			<ele>1298.000000</ele>
		<time>2015-04-26T09:25:18Z</time>
		</trkpt>

		<trkpt lat="37.143273" lon="-3.520506">
			<ele>1298.000000</ele>
		<time>2015-04-26T09:25:21Z</time>
		</trkpt>

		<trkpt lat="37.143564" lon="-3.520336">
			<ele>1292.000000</ele>
		<time>2015-04-26T09:25:24Z</time>
		</trkpt>

		<trkpt lat="37.143777" lon="-3.520418">
			<ele>1297.000000</ele>
		<time>2015-04-26T09:25:27Z</time>
		</trkpt>

		<trkpt lat="37.143941" lon="-3.520516">
			<ele>1290.000000</ele>
		<time>2015-04-26T09:25:30Z</time>
		</trkpt>

		<trkpt lat="37.144104" lon="-3.520737">
			<ele>1281.000000</ele>
		<time>2015-04-26T09:25:33Z</time>
		</trkpt>

		<trkpt lat="37.144331" lon="-3.520740">
			<ele>1285.000000</ele>
		<time>2015-04-26T09:25:36Z</time>
		</trkpt>

		<trkpt lat="37.144504" lon="-3.520869">
			<ele>1277.000000</ele>
		<time>2015-04-26T09:25:39Z</time>
		</trkpt>

		<trkpt lat="37.144745" lon="-3.520928">
			<ele>1277.000000</ele>
		<time>2015-04-26T09:25:42Z</time>
		</trkpt>

		<trkpt lat="37.145004" lon="-3.520866">
			<ele>1274.000000</ele>
		<time>2015-04-26T09:25:45Z</time>
		</trkpt>

		<trkpt lat="37.145239" lon="-3.520745">
			<ele>1273.000000</ele>
		<time>2015-04-26T09:25:48Z</time>
		</trkpt>

		<trkpt lat="37.145468" lon="-3.520734">
			<ele>1271.000000</ele>
		<time>2015-04-26T09:25:51Z</time>
		</trkpt>

		<trkpt lat="37.145568" lon="-3.520889">
			<ele>1268.000000</ele>
		<time>2015-04-26T09:25:54Z</time>
		</trkpt>

		<trkpt lat="37.145606" lon="-3.521063">
			<ele>1269.000000</ele>
		<time>2015-04-26T09:25:57Z</time>
		</trkpt>

		<trkpt lat="37.145478" lon="-3.521258">
			<ele>1276.000000</ele>
		<time>2015-04-26T09:26:00Z</time>
		</trkpt>

		<trkpt lat="37.145371" lon="-3.521288">
			<ele>1273.000000</ele>
		<time>2015-04-26T09:26:03Z</time>
		</trkpt>

		<trkpt lat="37.145249" lon="-3.521245">
			<ele>1281.000000</ele>
		<time>2015-04-26T09:26:06Z</time>
		</trkpt>

		<trkpt lat="37.145095" lon="-3.521248">
			<ele>1281.000000</ele>
		<time>2015-04-26T09:26:09Z</time>
		</trkpt>

		<trkpt lat="37.144877" lon="-3.521260">
			<ele>1279.000000</ele>
		<time>2015-04-26T09:26:12Z</time>
		</trkpt>

		<trkpt lat="37.144713" lon="-3.521258">
			<ele>1279.000000</ele>
		<time>2015-04-26T09:26:15Z</time>
		</trkpt>

		<trkpt lat="37.144572" lon="-3.521478">
			<ele>1270.000000</ele>
		<time>2015-04-26T09:26:18Z</time>
		</trkpt>

		<trkpt lat="37.144647" lon="-3.521712">
			<ele>1257.000000</ele>
		<time>2015-04-26T09:26:21Z</time>
		</trkpt>

		<trkpt lat="37.144926" lon="-3.521797">
			<ele>1248.000000</ele>
		<time>2015-04-26T09:26:24Z</time>
		</trkpt>

		<trkpt lat="37.145257" lon="-3.521729">
			<ele>1248.000000</ele>
		<time>2015-04-26T09:26:27Z</time>
		</trkpt>

		<trkpt lat="37.145523" lon="-3.521517">
			<ele>1248.000000</ele>
		<time>2015-04-26T09:26:30Z</time>
		</trkpt>

		<trkpt lat="37.145812" lon="-3.521362">
			<ele>1246.000000</ele>
		<time>2015-04-26T09:26:33Z</time>
		</trkpt>

		<trkpt lat="37.146063" lon="-3.521349">
			<ele>1244.000000</ele>
		<time>2015-04-26T09:26:36Z</time>
		</trkpt>

		<trkpt lat="37.146255" lon="-3.521448">
			<ele>1243.000000</ele>
		<time>2015-04-26T09:26:39Z</time>
		</trkpt>

		<trkpt lat="37.146337" lon="-3.521612">
			<ele>1240.000000</ele>
		<time>2015-04-26T09:26:42Z</time>
		</trkpt>

		<trkpt lat="37.146367" lon="-3.521835">
			<ele>1239.000000</ele>
		<time>2015-04-26T09:26:45Z</time>
		</trkpt>

		<trkpt lat="37.146232" lon="-3.521963">
			<ele>1241.000000</ele>
		<time>2015-04-26T09:26:48Z</time>
		</trkpt>

		<trkpt lat="37.146075" lon="-3.521959">
			<ele>1243.000000</ele>
		<time>2015-04-26T09:26:51Z</time>
		</trkpt>

		<trkpt lat="37.145950" lon="-3.522137">
			<ele>1238.000000</ele>
		<time>2015-04-26T09:26:54Z</time>
		</trkpt>

		<trkpt lat="37.145888" lon="-3.522358">
			<ele>1235.000000</ele>
		<time>2015-04-26T09:26:57Z</time>
		</trkpt>

		<trkpt lat="37.145880" lon="-3.522532">
			<ele>1222.000000</ele>
		<time>2015-04-26T09:27:00Z</time>
		</trkpt>

		<trkpt lat="37.145853" lon="-3.522704">
			<ele>1223.000000</ele>
		<time>2015-04-26T09:27:03Z</time>
		</trkpt>

		<trkpt lat="37.145927" lon="-3.523082">
			<ele>1221.000000</ele>
		<time>2015-04-26T09:27:09Z</time>
		</trkpt>

		<trkpt lat="37.146069" lon="-3.523219">
			<ele>1214.000000</ele>
		<time>2015-04-26T09:27:12Z</time>
		</trkpt>

		<trkpt lat="37.146283" lon="-3.523309">
			<ele>1214.000000</ele>
		<time>2015-04-26T09:27:15Z</time>
		</trkpt>

		<trkpt lat="37.146609" lon="-3.523315">
			<ele>1207.000000</ele>
		<time>2015-04-26T09:27:18Z</time>
		</trkpt>

		<trkpt lat="37.146842" lon="-3.523141">
			<ele>1204.000000</ele>
		<time>2015-04-26T09:27:21Z</time>
		</trkpt>

		<trkpt lat="37.147122" lon="-3.522952">
			<ele>1197.000000</ele>
		<time>2015-04-26T09:27:24Z</time>
		</trkpt>

		<trkpt lat="37.147409" lon="-3.522799">
			<ele>1193.000000</ele>
		<time>2015-04-26T09:27:27Z</time>
		</trkpt>

		<trkpt lat="37.147663" lon="-3.522720">
			<ele>1183.000000</ele>
		<time>2015-04-26T09:27:30Z</time>
		</trkpt>

		<trkpt lat="37.147942" lon="-3.522683">
			<ele>1180.000000</ele>
		<time>2015-04-26T09:27:33Z</time>
		</trkpt>

		<trkpt lat="37.148202" lon="-3.522761">
			<ele>1179.000000</ele>
		<time>2015-04-26T09:27:36Z</time>
		</trkpt>

		<trkpt lat="37.148722" lon="-3.522891">
			<ele>1180.000000</ele>
		<time>2015-04-26T09:27:42Z</time>
		</trkpt>

		<trkpt lat="37.149003" lon="-3.522890">
			<ele>1178.000000</ele>
		<time>2015-04-26T09:27:45Z</time>
		</trkpt>

		<trkpt lat="37.149233" lon="-3.522905">
			<ele>1175.000000</ele>
		<time>2015-04-26T09:27:48Z</time>
		</trkpt>

		<trkpt lat="37.149419" lon="-3.523031">
			<ele>1169.000000</ele>
		<time>2015-04-26T09:27:51Z</time>
		</trkpt>

		<trkpt lat="37.149562" lon="-3.523217">
			<ele>1166.000000</ele>
		<time>2015-04-26T09:27:54Z</time>
		</trkpt>

		<trkpt lat="37.149549" lon="-3.523442">
			<ele>1165.000000</ele>
		<time>2015-04-26T09:27:57Z</time>
		</trkpt>

		<trkpt lat="37.149514" lon="-3.523601">
			<ele>1162.000000</ele>
		<time>2015-04-26T09:28:00Z</time>
		</trkpt>

		<trkpt lat="37.149499" lon="-3.523776">
			<ele>1159.000000</ele>
		<time>2015-04-26T09:28:03Z</time>
		</trkpt>

		<trkpt lat="37.149510" lon="-3.523997">
			<ele>1157.000000</ele>
		<time>2015-04-26T09:28:06Z</time>
		</trkpt>

		<trkpt lat="37.149560" lon="-3.524186">
			<ele>1155.000000</ele>
		<time>2015-04-26T09:28:09Z</time>
		</trkpt>

		<trkpt lat="37.149593" lon="-3.524396">
			<ele>1153.000000</ele>
		<time>2015-04-26T09:28:12Z</time>
		</trkpt>

		<trkpt lat="37.149570" lon="-3.524633">
			<ele>1145.000000</ele>
		<time>2015-04-26T09:28:15Z</time>
		</trkpt>

		<trkpt lat="37.149565" lon="-3.524804">
			<ele>1141.000000</ele>
		<time>2015-04-26T09:28:18Z</time>
		</trkpt>

		<trkpt lat="37.149623" lon="-3.525011">
			<ele>1135.000000</ele>
		<time>2015-04-26T09:28:21Z</time>
		</trkpt>

		<trkpt lat="37.149701" lon="-3.525227">
			<ele>1137.000000</ele>
		<time>2015-04-26T09:28:24Z</time>
		</trkpt>

		<trkpt lat="37.149822" lon="-3.525464">
			<ele>1130.000000</ele>
		<time>2015-04-26T09:28:27Z</time>
		</trkpt>

		<trkpt lat="37.149969" lon="-3.525621">
			<ele>1130.000000</ele>
		<time>2015-04-26T09:28:30Z</time>
		</trkpt>

		<trkpt lat="37.150070" lon="-3.525821">
			<ele>1126.000000</ele>
		<time>2015-04-26T09:28:33Z</time>
		</trkpt>

		<trkpt lat="37.150216" lon="-3.525978">
			<ele>1127.000000</ele>
		<time>2015-04-26T09:28:36Z</time>
		</trkpt>

		<trkpt lat="37.150349" lon="-3.526158">
			<ele>1121.000000</ele>
		<time>2015-04-26T09:28:39Z</time>
		</trkpt>

		<trkpt lat="37.150506" lon="-3.526376">
			<ele>1124.000000</ele>
		<time>2015-04-26T09:28:42Z</time>
		</trkpt>

		<trkpt lat="37.150639" lon="-3.526541">
			<ele>1123.000000</ele>
		<time>2015-04-26T09:28:45Z</time>
		</trkpt>

		<trkpt lat="37.150692" lon="-3.526792">
			<ele>1121.000000</ele>
		<time>2015-04-26T09:28:48Z</time>
		</trkpt>

		<trkpt lat="37.150705" lon="-3.527036">
			<ele>1118.000000</ele>
		<time>2015-04-26T09:28:51Z</time>
		</trkpt>

		<trkpt lat="37.150714" lon="-3.527538">
			<ele>1107.000000</ele>
		<time>2015-04-26T09:28:57Z</time>
		</trkpt>

		<trkpt lat="37.150785" lon="-3.527779">
			<ele>1105.000000</ele>
		<time>2015-04-26T09:29:00Z</time>
		</trkpt>

		<trkpt lat="37.150945" lon="-3.527950">
			<ele>1105.000000</ele>
		<time>2015-04-26T09:29:03Z</time>
		</trkpt>

		<trkpt lat="37.151299" lon="-3.528271">
			<ele>1100.000000</ele>
		<time>2015-04-26T09:29:09Z</time>
		</trkpt>

		<trkpt lat="37.151518" lon="-3.528452">
			<ele>1096.000000</ele>
		<time>2015-04-26T09:29:12Z</time>
		</trkpt>

		<trkpt lat="37.151639" lon="-3.528633">
			<ele>1093.000000</ele>
		<time>2015-04-26T09:29:15Z</time>
		</trkpt>

		<trkpt lat="37.151831" lon="-3.528810">
			<ele>1091.000000</ele>
		<time>2015-04-26T09:29:18Z</time>
		</trkpt>

		<trkpt lat="37.152023" lon="-3.528952">
			<ele>1085.000000</ele>
		<time>2015-04-26T09:29:21Z</time>
		</trkpt>

		<trkpt lat="37.152180" lon="-3.529138">
			<ele>1079.000000</ele>
		<time>2015-04-26T09:29:24Z</time>
		</trkpt>

		<trkpt lat="37.152330" lon="-3.529335">
			<ele>1073.000000</ele>
		<time>2015-04-26T09:29:27Z</time>
		</trkpt>

		<trkpt lat="37.152410" lon="-3.529518">
			<ele>1071.000000</ele>
		<time>2015-04-26T09:29:30Z</time>
		</trkpt>

		<trkpt lat="37.152371" lon="-3.529753">
			<ele>1063.000000</ele>
		<time>2015-04-26T09:29:33Z</time>
		</trkpt>

		<trkpt lat="37.152304" lon="-3.530013">
			<ele>1057.000000</ele>
		<time>2015-04-26T09:29:36Z</time>
		</trkpt>

		<trkpt lat="37.152307" lon="-3.530399">
			<ele>1048.000000</ele>
		<time>2015-04-26T09:29:39Z</time>
		</trkpt>

		<trkpt lat="37.152453" lon="-3.530516">
			<ele>1046.000000</ele>
		<time>2015-04-26T09:29:42Z</time>
		</trkpt>

		<trkpt lat="37.152517" lon="-3.530818">
			<ele>1041.000000</ele>
		<time>2015-04-26T09:29:45Z</time>
		</trkpt>

		<trkpt lat="37.152571" lon="-3.531008">
			<ele>1037.000000</ele>
		<time>2015-04-26T09:29:48Z</time>
		</trkpt>

		<trkpt lat="37.152700" lon="-3.531223">
			<ele>1032.000000</ele>
		<time>2015-04-26T09:29:51Z</time>
		</trkpt>

		<trkpt lat="37.152761" lon="-3.531462">
			<ele>1035.000000</ele>
		<time>2015-04-26T09:29:54Z</time>
		</trkpt>

		<trkpt lat="37.152910" lon="-3.531684">
			<ele>1026.000000</ele>
		<time>2015-04-26T09:29:57Z</time>
		</trkpt>

		<trkpt lat="37.153092" lon="-3.531822">
			<ele>1026.000000</ele>
		<time>2015-04-26T09:30:00Z</time>
		</trkpt>

		<trkpt lat="37.153281" lon="-3.531937">
			<ele>1020.000000</ele>
		<time>2015-04-26T09:30:03Z</time>
		</trkpt>

		<trkpt lat="37.153369" lon="-3.532137">
			<ele>1020.000000</ele>
		<time>2015-04-26T09:30:06Z</time>
		</trkpt>

		<trkpt lat="37.153447" lon="-3.532349">
			<ele>1014.000000</ele>
		<time>2015-04-26T09:30:09Z</time>
		</trkpt>

		<trkpt lat="37.153515" lon="-3.532539">
			<ele>1010.000000</ele>
		<time>2015-04-26T09:30:12Z</time>
		</trkpt>

		<trkpt lat="37.153605" lon="-3.532711">
			<ele>1006.000000</ele>
		<time>2015-04-26T09:30:15Z</time>
		</trkpt>

		<trkpt lat="37.153687" lon="-3.532939">
			<ele>1004.000000</ele>
		<time>2015-04-26T09:30:18Z</time>
		</trkpt>

		<trkpt lat="37.153777" lon="-3.533128">
			<ele>997.000000</ele>
		<time>2015-04-26T09:30:21Z</time>
		</trkpt>

		<trkpt lat="37.153833" lon="-3.533398">
			<ele>984.000000</ele>
		<time>2015-04-26T09:30:24Z</time>
		</trkpt>

		<trkpt lat="37.153891" lon="-3.533650">
			<ele>977.000000</ele>
		<time>2015-04-26T09:30:27Z</time>
		</trkpt>

		<trkpt lat="37.153929" lon="-3.533883">
			<ele>975.000000</ele>
		<time>2015-04-26T09:30:30Z</time>
		</trkpt>

		<trkpt lat="37.153889" lon="-3.534133">
			<ele>971.000000</ele>
		<time>2015-04-26T09:30:33Z</time>
		</trkpt>

		<trkpt lat="37.153831" lon="-3.534320">
			<ele>970.000000</ele>
		<time>2015-04-26T09:30:36Z</time>
		</trkpt>

		<trkpt lat="37.153801" lon="-3.534536">
			<ele>966.000000</ele>
		<time>2015-04-26T09:30:39Z</time>
		</trkpt>

		<trkpt lat="37.153745" lon="-3.534720">
			<ele>965.000000</ele>
		<time>2015-04-26T09:30:42Z</time>
		</trkpt>

		<trkpt lat="37.153730" lon="-3.534953">
			<ele>959.000000</ele>
		<time>2015-04-26T09:30:45Z</time>
		</trkpt>

		<trkpt lat="37.153787" lon="-3.535195">
			<ele>951.000000</ele>
		<time>2015-04-26T09:30:48Z</time>
		</trkpt>

		<trkpt lat="37.153874" lon="-3.535372">
			<ele>942.000000</ele>
		<time>2015-04-26T09:30:51Z</time>
		</trkpt>

		<trkpt lat="37.153838" lon="-3.535609">
			<ele>939.000000</ele>
		<time>2015-04-26T09:30:54Z</time>
		</trkpt>

		<trkpt lat="37.153846" lon="-3.535773">
			<ele>938.000000</ele>
		<time>2015-04-26T09:30:57Z</time>
		</trkpt>

		<trkpt lat="37.153823" lon="-3.535940">
			<ele>938.000000</ele>
		<time>2015-04-26T09:31:00Z</time>
		</trkpt>

		<trkpt lat="37.153783" lon="-3.536105">
			<ele>933.000000</ele>
		<time>2015-04-26T09:31:03Z</time>
		</trkpt>

		<trkpt lat="37.153707" lon="-3.536232">
			<ele>932.000000</ele>
		<time>2015-04-26T09:31:06Z</time>
		</trkpt>

		<trkpt lat="37.153634" lon="-3.536388">
			<ele>921.000000</ele>
		<time>2015-04-26T09:31:09Z</time>
		</trkpt>

		<trkpt lat="37.153417" lon="-3.536317">
			<ele>918.000000</ele>
		<time>2015-04-26T09:31:12Z</time>
		</trkpt>

		<trkpt lat="37.153215" lon="-3.535920">
			<ele>914.000000</ele>
		<time>2015-04-26T09:31:15Z</time>
		</trkpt>

		<trkpt lat="37.153163" lon="-3.535503">
			<ele>911.000000</ele>
		<time>2015-04-26T09:31:18Z</time>
		</trkpt>

		<trkpt lat="37.153198" lon="-3.535063">
			<ele>912.000000</ele>
		<time>2015-04-26T09:31:21Z</time>
		</trkpt>

		<trkpt lat="37.153401" lon="-3.534686">
			<ele>904.000000</ele>
		<time>2015-04-26T09:31:24Z</time>
		</trkpt>

		<trkpt lat="37.153548" lon="-3.534367">
			<ele>900.000000</ele>
		<time>2015-04-26T09:31:27Z</time>
		</trkpt>

		<trkpt lat="37.153738" lon="-3.534070">
			<ele>891.000000</ele>
		<time>2015-04-26T09:31:30Z</time>
		</trkpt>

		<trkpt lat="37.153935" lon="-3.533812">
			<ele>884.000000</ele>
		<time>2015-04-26T09:31:33Z</time>
		</trkpt>

		<trkpt lat="37.154095" lon="-3.533810">
			<ele>883.000000</ele>
		<time>2015-04-26T09:31:36Z</time>
		</trkpt>

		<trkpt lat="37.154144" lon="-3.533998">
			<ele>882.000000</ele>
		<time>2015-04-26T09:31:39Z</time>
		</trkpt>

		<trkpt lat="37.153913" lon="-3.534133">
			<ele>885.000000</ele>
		<time>2015-04-26T09:31:42Z</time>
		</trkpt>

		<trkpt lat="37.153706" lon="-3.534204">
			<ele>884.000000</ele>
		<time>2015-04-26T09:31:45Z</time>
		</trkpt>

		<trkpt lat="37.153573" lon="-3.534407">
			<ele>875.000000</ele>
		<time>2015-04-26T09:31:48Z</time>
		</trkpt>

		<trkpt lat="37.153702" lon="-3.534678">
			<ele>867.000000</ele>
		<time>2015-04-26T09:31:51Z</time>
		</trkpt>

		<trkpt lat="37.153861" lon="-3.534614">
			<ele>861.000000</ele>
		<time>2015-04-26T09:31:54Z</time>
		</trkpt>

		<trkpt lat="37.154016" lon="-3.534421">
			<ele>861.000000</ele>
		<time>2015-04-26T09:31:57Z</time>
		</trkpt>

		<trkpt lat="37.154178" lon="-3.534235">
			<ele>858.000000</ele>
		<time>2015-04-26T09:32:00Z</time>
		</trkpt>

		<trkpt lat="37.154388" lon="-3.534157">
			<ele>855.000000</ele>
		<time>2015-04-26T09:32:03Z</time>
		</trkpt>

		<trkpt lat="37.154323" lon="-3.534448">
			<ele>854.000000</ele>
		<time>2015-04-26T09:32:06Z</time>
		</trkpt>

		<trkpt lat="37.154131" lon="-3.534658">
			<ele>845.000000</ele>
		<time>2015-04-26T09:32:09Z</time>
		</trkpt>

		<trkpt lat="37.154693" lon="-3.535159">
			<ele>777.000000</ele>
		<time>2015-04-26T09:32:42Z</time>
		</trkpt>

		<trkpt lat="37.154635" lon="-3.535200">
			<ele>784.000000</ele>
		<time>2015-04-26T09:32:46Z</time>
		</trkpt>

		<trkpt lat="37.154604" lon="-3.535219">
			<ele>789.000000</ele>
		<time>2015-04-26T09:32:49Z</time>
		</trkpt>

		<trkpt lat="37.154545" lon="-3.535271">
			<ele>792.000000</ele>
		<time>2015-04-26T09:32:52Z</time>
		</trkpt>

		<trkpt lat="37.154516" lon="-3.535306">
			<ele>798.000000</ele>
		<time>2015-04-26T09:32:58Z</time>
		</trkpt>

		<trkpt lat="37.154487" lon="-3.535296">
			<ele>799.000000</ele>
		<time>2015-04-26T09:33:01Z</time>
		</trkpt>

		<trkpt lat="37.154458" lon="-3.535302">
			<ele>797.000000</ele>
		<time>2015-04-26T09:33:07Z</time>
		</trkpt>

		<trkpt lat="37.154405" lon="-3.535324">
			<ele>803.000000</ele>
		<time>2015-04-26T09:33:34Z</time>
		</trkpt>

		<trkpt lat="37.154368" lon="-3.535322">
			<ele>803.000000</ele>
		<time>2015-04-26T09:33:37Z</time>
		</trkpt>

		<trkpt lat="37.154331" lon="-3.535298">
			<ele>801.000000</ele>
		<time>2015-04-26T09:33:43Z</time>
		</trkpt>

		<trkpt lat="37.154291" lon="-3.535324">
			<ele>800.000000</ele>
		<time>2015-04-26T09:33:46Z</time>
		</trkpt>

		<trkpt lat="37.154256" lon="-3.535356">
			<ele>800.000000</ele>
		<time>2015-04-26T09:33:49Z</time>
		</trkpt>

		<trkpt lat="37.154219" lon="-3.535385">
			<ele>802.000000</ele>
		<time>2015-04-26T09:33:52Z</time>
		</trkpt>

		<trkpt lat="37.154183" lon="-3.535416">
			<ele>802.000000</ele>
		<time>2015-04-26T09:33:55Z</time>
		</trkpt>

		<trkpt lat="37.154148" lon="-3.535429">
			<ele>802.000000</ele>
		<time>2015-04-26T09:33:58Z</time>
		</trkpt>

		<trkpt lat="37.154130" lon="-3.535403">
			<ele>801.000000</ele>
		<time>2015-04-26T09:34:01Z</time>
		</trkpt>

		<trkpt lat="37.154174" lon="-3.535422">
			<ele>802.000000</ele>
		<time>2015-04-26T09:34:07Z</time>
		</trkpt>

		<trkpt lat="37.154200" lon="-3.535403">
			<ele>797.000000</ele>
		<time>2015-04-26T09:34:25Z</time>
		</trkpt>

		<trkpt lat="37.154172" lon="-3.535381">
			<ele>801.000000</ele>
		<time>2015-04-26T09:35:43Z</time>
		</trkpt>

		<trkpt lat="37.154145" lon="-3.535340">
			<ele>802.000000</ele>
		<time>2015-04-26T09:35:49Z</time>
		</trkpt>

		<trkpt lat="37.154142" lon="-3.535393">
			<ele>805.000000</ele>
		<time>2015-04-26T09:36:01Z</time>
		</trkpt>

		<trkpt lat="37.154151" lon="-3.535430">
			<ele>807.000000</ele>
		<time>2015-04-26T09:36:16Z</time>
		</trkpt>

		<trkpt lat="37.154153" lon="-3.535337">
			<ele>801.000000</ele>
		<time>2015-04-26T09:36:49Z</time>
		</trkpt>

		<trkpt lat="37.154132" lon="-3.535296">
			<ele>809.000000</ele>
		<time>2015-04-26T09:37:10Z</time>
		</trkpt>

		<trkpt lat="37.154124" lon="-3.535333">
			<ele>807.000000</ele>
		<time>2015-04-26T09:37:16Z</time>
		</trkpt>

		<trkpt lat="37.154139" lon="-3.535371">
			<ele>804.000000</ele>
		<time>2015-04-26T09:37:25Z</time>
		</trkpt>

		<trkpt lat="37.154151" lon="-3.535330">
			<ele>806.000000</ele>
		<time>2015-04-26T09:37:31Z</time>
		</trkpt>

		<trkpt lat="37.154174" lon="-3.535360">
			<ele>802.000000</ele>
		<time>2015-04-26T09:37:37Z</time>
		</trkpt>

		<trkpt lat="37.154188" lon="-3.535395">
			<ele>803.000000</ele>
		<time>2015-04-26T09:37:43Z</time>
		</trkpt>

		<trkpt lat="37.154162" lon="-3.535416">
			<ele>803.000000</ele>
		<time>2015-04-26T09:37:49Z</time>
		</trkpt>

		<trkpt lat="37.154127" lon="-3.535430">
			<ele>802.000000</ele>
		<time>2015-04-26T09:37:55Z</time>
		</trkpt>

		<trkpt lat="37.154151" lon="-3.535412">
			<ele>798.000000</ele>
		<time>2015-04-26T09:38:07Z</time>
		</trkpt>

		<trkpt lat="37.154115" lon="-3.535400">
			<ele>802.000000</ele>
		<time>2015-04-26T09:39:58Z</time>
		</trkpt>

		<trkpt lat="37.154142" lon="-3.535403">
			<ele>802.000000</ele>
		<time>2015-04-26T09:40:49Z</time>
		</trkpt>

		<trkpt lat="37.154169" lon="-3.535389">
			<ele>802.000000</ele>
		<time>2015-04-26T09:41:40Z</time>
		</trkpt>

		<trkpt lat="37.154196" lon="-3.535381">
			<ele>809.000000</ele>
		<time>2015-04-26T09:42:19Z</time>
		</trkpt>

		<trkpt lat="37.154188" lon="-3.535348">
			<ele>811.000000</ele>
		<time>2015-04-26T09:42:31Z</time>
		</trkpt>

	</trkseg>
</trk>
</gpx>

